sensor_id;sensor_type;location;lat;lon;timestamp;P1;durP1;ratioP1;P2;durP2;ratioP2
76113;SDS011;64845;53.086;5.834;2023-03-01T00:01:05;204.00;;;14.55;;
76113;SDS011;64845;53.086;5.834;2023-03-01T00:03:33;335.25;;;16.15;;
76113;SDS011;64845;53.086;5.834;2023-03-01T00:05:59;294.95;;;13.85;;
76113;SDS011;64845;53.086;5.834;2023-03-01T00:08:25;216.77;;;12.25;;
76113;SDS011;64845;53.086;5.834;2023-03-01T00:11:01;215.13;;;12.18;;
76113;SDS011;64845;53.086;5.834;2023-03-01T00:13:27;223.52;;;11.90;;
76113;SDS011;64845;53.086;5.834;2023-03-01T00:15:52;199.25;;;11.00;;
76113;SDS011;64845;53.086;5.834;2023-03-01T00:18:17;197.65;;;12.00;;
76113;SDS011;64845;53.086;5.834;2023-03-01T00:20:49;137.98;;;10.45;;
76113;SDS011;64845;53.086;5.834;2023-03-01T00:23:16;138.65;;;9.27;;
76113;SDS011;64845;53.086;5.834;2023-03-01T00:25:42;135.90;;;9.38;;
76113;SDS011;64845;53.086;5.834;2023-03-01T00:28:08;116.25;;;10.15;;
76113;SDS011;64845;53.086;5.834;2023-03-01T00:30:33;126.88;;;9.57;;
76113;SDS011;64845;53.086;5.834;2023-03-01T00:32:58;167.07;;;10.30;;
76113;SDS011;64845;53.086;5.834;2023-03-01T00:35:24;243.80;;;10.88;;
76113;SDS011;64845;53.086;5.834;2023-03-01T00:37:49;78.50;;;8.73;;
76113;SDS011;64845;53.086;5.834;2023-03-01T00:40:22;31.45;;;7.90;;
76113;SDS011;64845;53.086;5.834;2023-03-01T00:42:51;17.20;;;7.70;;
76113;SDS011;64845;53.086;5.834;2023-03-01T00:45:16;9.50;;;6.93;;
76113;SDS011;64845;53.086;5.834;2023-03-01T00:47:42;8.82;;;7.18;;
76113;SDS011;64845;53.086;5.834;2023-03-01T00:50:08;13.38;;;6.68;;
76113;SDS011;64845;53.086;5.834;2023-03-01T00:52:34;13.73;;;7.75;;
76113;SDS011;64845;53.086;5.834;2023-03-01T00:54:59;9.40;;;7.38;;
76113;SDS011;64845;53.086;5.834;2023-03-01T00:57:25;19.50;;;7.20;;
76113;SDS011;64845;53.086;5.834;2023-03-01T00:59:51;36.83;;;7.07;;
76113;SDS011;64845;53.086;5.834;2023-03-01T01:02:17;56.35;;;7.57;;
76113;SDS011;64845;53.086;5.834;2023-03-01T01:04:46;56.22;;;8.02;;
76113;SDS011;64845;53.086;5.834;2023-03-01T01:07:11;56.47;;;8.70;;
76113;SDS011;64845;53.086;5.834;2023-03-01T01:09:37;17.13;;;7.70;;
76113;SDS011;64845;53.086;5.834;2023-03-01T01:12:03;11.65;;;8.02;;
76113;SDS011;64845;53.086;5.834;2023-03-01T01:14:28;17.35;;;8.65;;
76113;SDS011;64845;53.086;5.834;2023-03-01T01:16:54;10.85;;;7.95;;
76113;SDS011;64845;53.086;5.834;2023-03-01T01:19:20;11.38;;;7.63;;
76113;SDS011;64845;53.086;5.834;2023-03-01T01:21:46;9.77;;;7.25;;
76113;SDS011;64845;53.086;5.834;2023-03-01T01:24:13;8.88;;;7.45;;
76113;SDS011;64845;53.086;5.834;2023-03-01T01:26:39;10.15;;;7.07;;
76113;SDS011;64845;53.086;5.834;2023-03-01T01:29:05;29.33;;;7.43;;
76113;SDS011;64845;53.086;5.834;2023-03-01T01:31:31;9.48;;;7.28;;
76113;SDS011;64845;53.086;5.834;2023-03-01T01:33:58;71.93;;;8.48;;
76113;SDS011;64845;53.086;5.834;2023-03-01T01:36:25;11.65;;;5.82;;
76113;SDS011;64845;53.086;5.834;2023-03-01T01:38:50;10.45;;;6.97;;
76113;SDS011;64845;53.086;5.834;2023-03-01T01:41:16;9.80;;;6.47;;
76113;SDS011;64845;53.086;5.834;2023-03-01T01:43:44;10.90;;;6.82;;
76113;SDS011;64845;53.086;5.834;2023-03-01T01:48:53;10.35;;;7.50;;
76113;SDS011;64845;53.086;5.834;2023-03-01T01:51:24;9.23;;;6.90;;
76113;SDS011;64845;53.086;5.834;2023-03-01T01:53:53;20.27;;;7.30;;
76113;SDS011;64845;53.086;5.834;2023-03-01T01:56:23;44.97;;;7.97;;
76113;SDS011;64845;53.086;5.834;2023-03-01T01:58:51;10.07;;;6.85;;
76113;SDS011;64845;53.086;5.834;2023-03-01T02:01:18;15.40;;;8.02;;
76113;SDS011;64845;53.086;5.834;2023-03-01T02:03:44;80.35;;;8.18;;
76113;SDS011;64845;53.086;5.834;2023-03-01T02:08:44;22.83;;;8.45;;
76113;SDS011;64845;53.086;5.834;2023-03-01T02:11:11;71.13;;;8.15;;
76113;SDS011;64845;53.086;5.834;2023-03-01T02:13:40;80.00;;;7.30;;
76113;SDS011;64845;53.086;5.834;2023-03-01T02:16:10;23.77;;;6.88;;
76113;SDS011;64845;53.086;5.834;2023-03-01T02:18:38;111.32;;;8.27;;
76113;SDS011;64845;53.086;5.834;2023-03-01T02:21:15;318.02;;;9.90;;
76113;SDS011;64845;53.086;5.834;2023-03-01T02:23:42;257.90;;;9.82;;
76113;SDS011;64845;53.086;5.834;2023-03-01T02:26:14;263.40;;;9.48;;
76113;SDS011;64845;53.086;5.834;2023-03-01T02:28:45;294.55;;;11.43;;
76113;SDS011;64845;53.086;5.834;2023-03-01T02:31:14;179.00;;;8.50;;
76113;SDS011;64845;53.086;5.834;2023-03-01T02:34:00;305.27;;;9.55;;
76113;SDS011;64845;53.086;5.834;2023-03-01T02:36:30;200.60;;;8.20;;
76113;SDS011;64845;53.086;5.834;2023-03-01T02:39:00;165.15;;;8.10;;
76113;SDS011;64845;53.086;5.834;2023-03-01T02:41:31;230.32;;;9.07;;
76113;SDS011;64845;53.086;5.834;2023-03-01T02:44:00;294.48;;;9.25;;
76113;SDS011;64845;53.086;5.834;2023-03-01T02:46:27;240.05;;;9.77;;
76113;SDS011;64845;53.086;5.834;2023-03-01T02:48:53;335.25;;;10.45;;
76113;SDS011;64845;53.086;5.834;2023-03-01T02:56:56;142.00;;;6.57;;
76113;SDS011;64845;53.086;5.834;2023-03-01T02:59:24;217.38;;;8.30;;
76113;SDS011;64845;53.086;5.834;2023-03-01T03:01:54;171.13;;;6.97;;
76113;SDS011;64845;53.086;5.834;2023-03-01T03:04:19;117.18;;;6.20;;
76113;SDS011;64845;53.086;5.834;2023-03-01T03:06:46;252.60;;;10.77;;
76113;SDS011;64845;53.086;5.834;2023-03-01T03:09:13;234.27;;;8.75;;
76113;SDS011;64845;53.086;5.834;2023-03-01T03:11:39;195.52;;;7.88;;
76113;SDS011;64845;53.086;5.834;2023-03-01T03:14:06;174.00;;;7.55;;
76113;SDS011;64845;53.086;5.834;2023-03-01T03:16:47;147.10;;;6.95;;
76113;SDS011;64845;53.086;5.834;2023-03-01T03:19:14;164.32;;;7.93;;
76113;SDS011;64845;53.086;5.834;2023-03-01T03:21:41;231.45;;;8.30;;
76113;SDS011;64845;53.086;5.834;2023-03-01T03:24:07;183.60;;;7.22;;
76113;SDS011;64845;53.086;5.834;2023-03-01T03:26:33;135.88;;;8.25;;
76113;SDS011;64845;53.086;5.834;2023-03-01T03:28:58;179.65;;;6.45;;
76113;SDS011;64845;53.086;5.834;2023-03-01T03:31:23;335.23;;;10.13;;
76113;SDS011;64845;53.086;5.834;2023-03-01T03:33:49;206.70;;;7.13;;
76113;SDS011;64845;53.086;5.834;2023-03-01T03:36:16;311.45;;;9.48;;
76113;SDS011;64845;53.086;5.834;2023-03-01T03:38:43;221.77;;;7.32;;
76113;SDS011;64845;53.086;5.834;2023-03-01T03:41:09;144.60;;;6.13;;
76113;SDS011;64845;53.086;5.834;2023-03-01T03:43:35;174.10;;;6.68;;
76113;SDS011;64845;53.086;5.834;2023-03-01T03:46:02;120.38;;;5.28;;
76113;SDS011;64845;53.086;5.834;2023-03-01T03:48:33;101.68;;;6.38;;
76113;SDS011;64845;53.086;5.834;2023-03-01T03:50:59;106.72;;;6.70;;
76113;SDS011;64845;53.086;5.834;2023-03-01T03:53:25;135.43;;;6.55;;
76113;SDS011;64845;53.086;5.834;2023-03-01T03:55:53;149.27;;;6.43;;
76113;SDS011;64845;53.086;5.834;2023-03-01T03:58:20;143.10;;;6.28;;
76113;SDS011;64845;53.086;5.834;2023-03-01T04:00:51;39.78;;;4.45;;
76113;SDS011;64845;53.086;5.834;2023-03-01T04:03:21;74.20;;;5.43;;
76113;SDS011;64845;53.086;5.834;2023-03-01T04:05:48;30.58;;;4.97;;
76113;SDS011;64845;53.086;5.834;2023-03-01T04:08:18;41.75;;;4.65;;
76113;SDS011;64845;53.086;5.834;2023-03-01T04:10:47;27.50;;;5.18;;
76113;SDS011;64845;53.086;5.834;2023-03-01T04:13:15;35.97;;;5.10;;
76113;SDS011;64845;53.086;5.834;2023-03-01T04:15:44;32.95;;;4.68;;
76113;SDS011;64845;53.086;5.834;2023-03-01T04:18:13;13.65;;;5.07;;
76113;SDS011;64845;53.086;5.834;2023-03-01T04:20:40;9.88;;;4.65;;
76113;SDS011;64845;53.086;5.834;2023-03-01T04:23:08;10.25;;;4.55;;
76113;SDS011;64845;53.086;5.834;2023-03-01T04:25:39;38.83;;;4.28;;
76113;SDS011;64845;53.086;5.834;2023-03-01T04:28:06;27.33;;;4.43;;
76113;SDS011;64845;53.086;5.834;2023-03-01T04:30:32;54.70;;;4.22;;
76113;SDS011;64845;53.086;5.834;2023-03-01T04:33:07;78.63;;;4.75;;
76113;SDS011;64845;53.086;5.834;2023-03-01T04:35:34;58.50;;;4.75;;
76113;SDS011;64845;53.086;5.834;2023-03-01T04:38:01;68.70;;;5.35;;
76113;SDS011;64845;53.086;5.834;2023-03-01T04:40:26;96.45;;;5.95;;
76113;SDS011;64845;53.086;5.834;2023-03-01T04:42:52;108.63;;;6.47;;
76113;SDS011;64845;53.086;5.834;2023-03-01T04:45:18;370.50;;;10.77;;
76113;SDS011;64845;53.086;5.834;2023-03-01T04:47:44;237.82;;;7.75;;
76113;SDS011;64845;53.086;5.834;2023-03-01T04:50:11;169.50;;;6.72;;
76113;SDS011;64845;53.086;5.834;2023-03-01T04:52:39;127.60;;;6.55;;
76113;SDS011;64845;53.086;5.834;2023-03-01T04:55:05;236.95;;;7.88;;
76113;SDS011;64845;53.086;5.834;2023-03-01T04:57:31;159.82;;;6.40;;
76113;SDS011;64845;53.086;5.834;2023-03-01T04:59:57;201.85;;;8.27;;
76113;SDS011;64845;53.086;5.834;2023-03-01T05:02:22;207.00;;;7.28;;
76113;SDS011;64845;53.086;5.834;2023-03-01T05:04:47;139.68;;;8.38;;
76113;SDS011;64845;53.086;5.834;2023-03-01T05:07:13;108.55;;;5.35;;
76113;SDS011;64845;53.086;5.834;2023-03-01T05:09:44;111.25;;;5.85;;
76113;SDS011;64845;53.086;5.834;2023-03-01T05:12:10;124.93;;;5.50;;
76113;SDS011;64845;53.086;5.834;2023-03-01T05:14:36;113.00;;;5.10;;
76113;SDS011;64845;53.086;5.834;2023-03-01T05:17:01;97.80;;;5.35;;
76113;SDS011;64845;53.086;5.834;2023-03-01T05:19:29;110.15;;;6.03;;
76113;SDS011;64845;53.086;5.834;2023-03-01T05:21:55;93.65;;;5.68;;
76113;SDS011;64845;53.086;5.834;2023-03-01T05:24:31;58.00;;;4.60;;
76113;SDS011;64845;53.086;5.834;2023-03-01T05:26:58;110.90;;;5.65;;
76113;SDS011;64845;53.086;5.834;2023-03-01T05:29:25;74.93;;;5.10;;
76113;SDS011;64845;53.086;5.834;2023-03-01T05:31:52;78.28;;;5.28;;
76113;SDS011;64845;53.086;5.834;2023-03-01T05:34:23;73.90;;;5.50;;
76113;SDS011;64845;53.086;5.834;2023-03-01T05:36:50;142.15;;;6.78;;
76113;SDS011;64845;53.086;5.834;2023-03-01T05:39:18;124.90;;;6.07;;
76113;SDS011;64845;53.086;5.834;2023-03-01T05:41:46;213.73;;;7.60;;
76113;SDS011;64845;53.086;5.834;2023-03-01T05:44:11;134.27;;;5.40;;
76113;SDS011;64845;53.086;5.834;2023-03-01T05:46:37;136.23;;;5.88;;
76113;SDS011;64845;53.086;5.834;2023-03-01T05:49:02;160.50;;;6.10;;
76113;SDS011;64845;53.086;5.834;2023-03-01T05:51:29;120.68;;;6.15;;
76113;SDS011;64845;53.086;5.834;2023-03-01T05:53:54;126.18;;;6.38;;
76113;SDS011;64845;53.086;5.834;2023-03-01T05:56:20;179.25;;;7.20;;
76113;SDS011;64845;53.086;5.834;2023-03-01T05:58:47;138.25;;;6.85;;
76113;SDS011;64845;53.086;5.834;2023-03-01T06:01:14;95.63;;;6.07;;
76113;SDS011;64845;53.086;5.834;2023-03-01T06:03:40;99.25;;;6.20;;
76113;SDS011;64845;53.086;5.834;2023-03-01T06:06:05;98.05;;;5.57;;
76113;SDS011;64845;53.086;5.834;2023-03-01T06:08:30;131.05;;;5.78;;
76113;SDS011;64845;53.086;5.834;2023-03-01T06:10:56;93.10;;;5.40;;
76113;SDS011;64845;53.086;5.834;2023-03-01T06:13:22;96.45;;;6.18;;
76113;SDS011;64845;53.086;5.834;2023-03-01T06:15:48;68.45;;;5.57;;
76113;SDS011;64845;53.086;5.834;2023-03-01T06:18:14;46.78;;;4.68;;
76113;SDS011;64845;53.086;5.834;2023-03-01T06:20:39;72.47;;;5.40;;
76113;SDS011;64845;53.086;5.834;2023-03-01T06:23:04;141.73;;;6.53;;
76113;SDS011;64845;53.086;5.834;2023-03-01T06:25:30;74.97;;;5.18;;
76113;SDS011;64845;53.086;5.834;2023-03-01T06:27:55;118.63;;;5.22;;
76113;SDS011;64845;53.086;5.834;2023-03-01T06:30:22;128.43;;;6.32;;
76113;SDS011;64845;53.086;5.834;2023-03-01T06:32:49;74.00;;;5.38;;
76113;SDS011;64845;53.086;5.834;2023-03-01T06:35:15;108.30;;;6.45;;
76113;SDS011;64845;53.086;5.834;2023-03-01T06:37:43;149.23;;;7.85;;
76113;SDS011;64845;53.086;5.834;2023-03-01T06:40:09;145.93;;;8.60;;
76113;SDS011;64845;53.086;5.834;2023-03-01T06:42:37;84.68;;;6.88;;
76113;SDS011;64845;53.086;5.834;2023-03-01T06:45:04;45.17;;;5.80;;
76113;SDS011;64845;53.086;5.834;2023-03-01T06:47:31;69.57;;;5.93;;
76113;SDS011;64845;53.086;5.834;2023-03-01T06:49:58;131.23;;;7.47;;
76113;SDS011;64845;53.086;5.834;2023-03-01T06:52:24;182.75;;;10.95;;
76113;SDS011;64845;53.086;5.834;2023-03-01T06:54:49;170.43;;;9.05;;
76113;SDS011;64845;53.086;5.834;2023-03-01T06:57:15;90.35;;;8.68;;
76113;SDS011;64845;53.086;5.834;2023-03-01T06:59:40;132.43;;;9.35;;
76113;SDS011;64845;53.086;5.834;2023-03-01T07:02:05;54.50;;;7.80;;
76113;SDS011;64845;53.086;5.834;2023-03-01T07:04:31;50.35;;;8.05;;
76113;SDS011;64845;53.086;5.834;2023-03-01T07:06:56;144.07;;;7.40;;
76113;SDS011;64845;53.086;5.834;2023-03-01T07:09:22;95.82;;;6.32;;
76113;SDS011;64845;53.086;5.834;2023-03-01T07:11:48;31.25;;;5.00;;
76113;SDS011;64845;53.086;5.834;2023-03-01T07:14:14;85.93;;;6.22;;
76113;SDS011;64845;53.086;5.834;2023-03-01T07:16:40;46.70;;;5.25;;
76113;SDS011;64845;53.086;5.834;2023-03-01T07:19:06;13.55;;;4.90;;
76113;SDS011;64845;53.086;5.834;2023-03-01T07:21:31;115.60;;;6.22;;
76113;SDS011;64845;53.086;5.834;2023-03-01T07:23:56;107.53;;;5.82;;
76113;SDS011;64845;53.086;5.834;2023-03-01T07:26:22;126.97;;;6.97;;
76113;SDS011;64845;53.086;5.834;2023-03-01T07:28:47;69.03;;;5.72;;
76113;SDS011;64845;53.086;5.834;2023-03-01T07:31:13;42.25;;;5.85;;
76113;SDS011;64845;53.086;5.834;2023-03-01T07:33:38;26.98;;;5.55;;
76113;SDS011;64845;53.086;5.834;2023-03-01T07:36:04;146.90;;;7.80;;
76113;SDS011;64845;53.086;5.834;2023-03-01T07:38:31;194.63;;;10.27;;
76113;SDS011;64845;53.086;5.834;2023-03-01T07:41:00;102.47;;;7.60;;
76113;SDS011;64845;53.086;5.834;2023-03-01T07:43:29;135.43;;;8.93;;
76113;SDS011;64845;53.086;5.834;2023-03-01T07:45:58;132.13;;;8.45;;
76113;SDS011;64845;53.086;5.834;2023-03-01T07:48:25;200.73;;;9.43;;
76113;SDS011;64845;53.086;5.834;2023-03-01T07:50:50;93.63;;;7.28;;
76113;SDS011;64845;53.086;5.834;2023-03-01T07:53:16;149.32;;;8.25;;
76113;SDS011;64845;53.086;5.834;2023-03-01T07:55:41;80.25;;;7.45;;
76113;SDS011;64845;53.086;5.834;2023-03-01T07:58:06;83.82;;;7.60;;
76113;SDS011;64845;53.086;5.834;2023-03-01T08:00:32;39.78;;;7.32;;
76113;SDS011;64845;53.086;5.834;2023-03-01T08:03:00;76.03;;;8.15;;
76113;SDS011;64845;53.086;5.834;2023-03-01T08:05:27;49.83;;;7.40;;
76113;SDS011;64845;53.086;5.834;2023-03-01T08:07:53;60.45;;;7.57;;
76113;SDS011;64845;53.086;5.834;2023-03-01T08:10:19;19.27;;;8.07;;
76113;SDS011;64845;53.086;5.834;2023-03-01T08:12:44;13.80;;;7.47;;
76113;SDS011;64845;53.086;5.834;2023-03-01T08:15:10;21.63;;;7.70;;
76113;SDS011;64845;53.086;5.834;2023-03-01T08:17:37;11.32;;;8.43;;
76113;SDS011;64845;53.086;5.834;2023-03-01T08:20:03;14.77;;;8.93;;
76113;SDS011;64845;53.086;5.834;2023-03-01T08:22:32;12.25;;;8.73;;
76113;SDS011;64845;53.086;5.834;2023-03-01T08:24:57;14.30;;;10.15;;
76113;SDS011;64845;53.086;5.834;2023-03-01T08:27:22;11.82;;;8.93;;
76113;SDS011;64845;53.086;5.834;2023-03-01T08:29:48;16.27;;;9.52;;
76113;SDS011;64845;53.086;5.834;2023-03-01T08:32:13;12.45;;;8.77;;
76113;SDS011;64845;53.086;5.834;2023-03-01T08:34:38;16.73;;;9.15;;
76113;SDS011;64845;53.086;5.834;2023-03-01T08:37:04;16.23;;;10.18;;
76113;SDS011;64845;53.086;5.834;2023-03-01T08:39:29;15.85;;;10.57;;
76113;SDS011;64845;53.086;5.834;2023-03-01T08:41:55;13.80;;;10.30;;
76113;SDS011;64845;53.086;5.834;2023-03-01T08:44:20;15.70;;;9.27;;
76113;SDS011;64845;53.086;5.834;2023-03-01T08:46:46;17.58;;;10.57;;
76113;SDS011;64845;53.086;5.834;2023-03-01T08:49:15;12.63;;;9.70;;
76113;SDS011;64845;53.086;5.834;2023-03-01T08:51:43;13.63;;;9.63;;
76113;SDS011;64845;53.086;5.834;2023-03-01T08:54:13;13.95;;;9.10;;
76113;SDS011;64845;53.086;5.834;2023-03-01T08:56:43;13.93;;;8.43;;
76113;SDS011;64845;53.086;5.834;2023-03-01T08:59:10;13.45;;;9.30;;
76113;SDS011;64845;53.086;5.834;2023-03-01T09:01:36;11.35;;;8.43;;
76113;SDS011;64845;53.086;5.834;2023-03-01T09:04:02;11.05;;;8.35;;
76113;SDS011;64845;53.086;5.834;2023-03-01T09:06:32;12.77;;;7.63;;
76113;SDS011;64845;53.086;5.834;2023-03-01T09:08:58;11.35;;;8.00;;
76113;SDS011;64845;53.086;5.834;2023-03-01T09:11:25;10.40;;;7.53;;
76113;SDS011;64845;53.086;5.834;2023-03-01T09:13:50;11.60;;;7.35;;
76113;SDS011;64845;53.086;5.834;2023-03-01T09:16:17;11.70;;;7.75;;
76113;SDS011;64845;53.086;5.834;2023-03-01T09:18:44;11.43;;;7.28;;
76113;SDS011;64845;53.086;5.834;2023-03-01T09:21:11;11.65;;;7.88;;
76113;SDS011;64845;53.086;5.834;2023-03-01T09:23:39;13.15;;;8.05;;
76113;SDS011;64845;53.086;5.834;2023-03-01T09:26:07;13.85;;;8.45;;
76113;SDS011;64845;53.086;5.834;2023-03-01T09:28:38;16.50;;;8.93;;
76113;SDS011;64845;53.086;5.834;2023-03-01T09:31:05;12.65;;;8.93;;
76113;SDS011;64845;53.086;5.834;2023-03-01T09:33:31;13.70;;;8.38;;
76113;SDS011;64845;53.086;5.834;2023-03-01T09:35:58;13.68;;;8.63;;
76113;SDS011;64845;53.086;5.834;2023-03-01T09:38:28;15.52;;;9.23;;
76113;SDS011;64845;53.086;5.834;2023-03-01T09:40:53;11.18;;;8.50;;
76113;SDS011;64845;53.086;5.834;2023-03-01T09:46:12;14.32;;;8.70;;
76113;SDS011;64845;53.086;5.834;2023-03-01T09:48:43;11.43;;;9.02;;
76113;SDS011;64845;53.086;5.834;2023-03-01T09:51:17;12.88;;;9.02;;
76113;SDS011;64845;53.086;5.834;2023-03-01T09:53:44;17.15;;;9.52;;
76113;SDS011;64845;53.086;5.834;2023-03-01T09:56:16;17.33;;;10.70;;
76113;SDS011;64845;53.086;5.834;2023-03-01T10:01:26;15.00;;;10.27;;
76113;SDS011;64845;53.086;5.834;2023-03-01T10:06:47;17.08;;;9.40;;
76113;SDS011;64845;53.086;5.834;2023-03-01T10:09:21;14.93;;;8.70;;
76113;SDS011;64845;53.086;5.834;2023-03-01T10:11:48;11.73;;;8.75;;
76113;SDS011;64845;53.086;5.834;2023-03-01T10:14:36;14.38;;;9.48;;
76113;SDS011;64845;53.086;5.834;2023-03-01T10:17:04;11.43;;;8.48;;
76113;SDS011;64845;53.086;5.834;2023-03-01T10:19:45;13.55;;;8.93;;
76113;SDS011;64845;53.086;5.834;2023-03-01T10:22:18;12.73;;;8.00;;
76113;SDS011;64845;53.086;5.834;2023-03-01T10:24:48;15.65;;;9.75;;
76113;SDS011;64845;53.086;5.834;2023-03-01T10:32:31;13.23;;;8.75;;
76113;SDS011;64845;53.086;5.834;2023-03-01T10:34:57;14.10;;;9.25;;
76113;SDS011;64845;53.086;5.834;2023-03-01T10:37:23;12.85;;;8.20;;
76113;SDS011;64845;53.086;5.834;2023-03-01T10:39:54;15.50;;;10.00;;
76113;SDS011;64845;53.086;5.834;2023-03-01T10:42:28;12.57;;;8.88;;
76113;SDS011;64845;53.086;5.834;2023-03-01T10:44:58;14.30;;;8.65;;
76113;SDS011;64845;53.086;5.834;2023-03-01T10:47:41;13.32;;;9.82;;
76113;SDS011;64845;53.086;5.834;2023-03-01T10:50:18;16.92;;;10.82;;
76113;SDS011;64845;53.086;5.834;2023-03-01T10:52:55;15.95;;;10.65;;
76113;SDS011;64845;53.086;5.834;2023-03-01T10:55:29;16.98;;;10.65;;
76113;SDS011;64845;53.086;5.834;2023-03-01T11:00:53;16.08;;;10.55;;
76113;SDS011;64845;53.086;5.834;2023-03-01T11:03:23;21.25;;;11.02;;
76113;SDS011;64845;53.086;5.834;2023-03-01T11:05:57;20.65;;;11.20;;
76113;SDS011;64845;53.086;5.834;2023-03-01T11:11:07;14.27;;;10.15;;
76113;SDS011;64845;53.086;5.834;2023-03-01T11:13:54;19.02;;;12.05;;
76113;SDS011;64845;53.086;5.834;2023-03-01T11:19:00;23.23;;;11.73;;
76113;SDS011;64845;53.086;5.834;2023-03-01T11:21:46;16.20;;;11.07;;
76113;SDS011;64845;53.086;5.834;2023-03-01T11:24:42;18.13;;;11.38;;
76113;SDS011;64845;53.086;5.834;2023-03-01T11:30:05;18.58;;;11.57;;
76113;SDS011;64845;53.086;5.834;2023-03-01T11:32:42;15.85;;;11.20;;
76113;SDS011;64845;53.086;5.834;2023-03-01T11:40:28;16.58;;;12.20;;
76113;SDS011;64845;53.086;5.834;2023-03-01T11:43:12;19.67;;;12.45;;
76113;SDS011;64845;53.086;5.834;2023-03-01T11:45:43;18.60;;;12.15;;
76113;SDS011;64845;53.086;5.834;2023-03-01T11:51:13;18.65;;;11.88;;
76113;SDS011;64845;53.086;5.834;2023-03-01T11:53:51;16.98;;;11.00;;
76113;SDS011;64845;53.086;5.834;2023-03-01T12:02:08;14.48;;;9.60;;
76113;SDS011;64845;53.086;5.834;2023-03-01T12:05:06;16.27;;;10.45;;
76113;SDS011;64845;53.086;5.834;2023-03-01T12:07:46;19.02;;;10.82;;
76113;SDS011;64845;53.086;5.834;2023-03-01T12:10:19;18.25;;;10.95;;
76113;SDS011;64845;53.086;5.834;2023-03-01T12:18:44;16.52;;;9.90;;
76113;SDS011;64845;53.086;5.834;2023-03-01T12:29:54;13.90;;;9.43;;
76113;SDS011;64845;53.086;5.834;2023-03-01T12:41:03;16.35;;;10.20;;
76113;SDS011;64845;53.086;5.834;2023-03-01T12:51:32;14.45;;;9.80;;
76113;SDS011;64845;53.086;5.834;2023-03-01T12:54:01;16.63;;;10.13;;
76113;SDS011;64845;53.086;5.834;2023-03-01T12:56:36;14.32;;;10.27;;
76113;SDS011;64845;53.086;5.834;2023-03-01T13:01:52;14.32;;;9.38;;
76113;SDS011;64845;53.086;5.834;2023-03-01T13:07:05;15.63;;;10.35;;
76113;SDS011;64845;53.086;5.834;2023-03-01T13:12:01;19.92;;;10.05;;
76113;SDS011;64845;53.086;5.834;2023-03-01T13:16:58;14.15;;;9.25;;
76113;SDS011;64845;53.086;5.834;2023-03-01T13:19:24;13.85;;;9.65;;
76113;SDS011;64845;53.086;5.834;2023-03-01T13:21:51;16.75;;;10.07;;
76113;SDS011;64845;53.086;5.834;2023-03-01T13:24:26;15.45;;;9.93;;
76113;SDS011;64845;53.086;5.834;2023-03-01T13:29:45;15.27;;;10.68;;
76113;SDS011;64845;53.086;5.834;2023-03-01T13:37:42;17.48;;;11.23;;
76113;SDS011;64845;53.086;5.834;2023-03-01T13:42:42;18.38;;;11.57;;
76113;SDS011;64845;53.086;5.834;2023-03-01T13:48:09;16.50;;;11.07;;
76113;SDS011;64845;53.086;5.834;2023-03-01T13:50:51;16.25;;;10.00;;
76113;SDS011;64845;53.086;5.834;2023-03-01T13:55:51;12.88;;;8.80;;
76113;SDS011;64845;53.086;5.834;2023-03-01T14:01:01;17.10;;;10.18;;
76113;SDS011;64845;53.086;5.834;2023-03-01T14:03:29;16.52;;;10.07;;
76113;SDS011;64845;53.086;5.834;2023-03-01T14:06:06;13.20;;;9.73;;
76113;SDS011;64845;53.086;5.834;2023-03-01T14:08:44;15.50;;;9.93;;
76113;SDS011;64845;53.086;5.834;2023-03-01T14:19:17;18.27;;;9.82;;
76113;SDS011;64845;53.086;5.834;2023-03-01T14:21:58;13.27;;;8.32;;
76113;SDS011;64845;53.086;5.834;2023-03-01T14:24:48;13.43;;;9.48;;
76113;SDS011;64845;53.086;5.834;2023-03-01T14:27:15;15.35;;;10.73;;
76113;SDS011;64845;53.086;5.834;2023-03-01T14:29:42;15.80;;;9.70;;
76113;SDS011;64845;53.086;5.834;2023-03-01T14:32:09;13.45;;;9.52;;
76113;SDS011;64845;53.086;5.834;2023-03-01T14:34:44;14.20;;;9.70;;
76113;SDS011;64845;53.086;5.834;2023-03-01T14:37:18;12.77;;;9.38;;
76113;SDS011;64845;53.086;5.834;2023-03-01T14:39:58;15.77;;;10.00;;
76113;SDS011;64845;53.086;5.834;2023-03-01T14:42:25;14.52;;;10.15;;
76113;SDS011;64845;53.086;5.834;2023-03-01T14:44:56;15.02;;;9.57;;
76113;SDS011;64845;53.086;5.834;2023-03-01T14:47:29;15.68;;;9.63;;
76113;SDS011;64845;53.086;5.834;2023-03-01T14:50:02;12.23;;;8.98;;
76113;SDS011;64845;53.086;5.834;2023-03-01T14:52:33;14.82;;;8.80;;
76113;SDS011;64845;53.086;5.834;2023-03-01T14:55:20;11.35;;;8.77;;
76113;SDS011;64845;53.086;5.834;2023-03-01T14:57:51;13.88;;;9.07;;
76113;SDS011;64845;53.086;5.834;2023-03-01T15:00:24;13.68;;;9.20;;
76113;SDS011;64845;53.086;5.834;2023-03-01T15:02:50;13.88;;;8.93;;
76113;SDS011;64845;53.086;5.834;2023-03-01T15:05:18;11.55;;;8.80;;
76113;SDS011;64845;53.086;5.834;2023-03-01T15:07:50;11.75;;;8.85;;
76113;SDS011;64845;53.086;5.834;2023-03-01T15:10:19;11.30;;;8.57;;
76113;SDS011;64845;53.086;5.834;2023-03-01T15:12:49;16.75;;;9.10;;
76113;SDS011;64845;53.086;5.834;2023-03-01T15:15:34;13.25;;;8.90;;
76113;SDS011;64845;53.086;5.834;2023-03-01T15:18:02;12.38;;;8.20;;
76113;SDS011;64845;53.086;5.834;2023-03-01T15:20:30;12.90;;;8.90;;
76113;SDS011;64845;53.086;5.834;2023-03-01T15:23:00;11.13;;;8.18;;
76113;SDS011;64845;53.086;5.834;2023-03-01T15:25:27;13.30;;;7.97;;
76113;SDS011;64845;53.086;5.834;2023-03-01T15:27:54;12.57;;;7.75;;
76113;SDS011;64845;53.086;5.834;2023-03-01T15:30:32;11.15;;;8.23;;
76113;SDS011;64845;53.086;5.834;2023-03-01T15:36:00;11.48;;;7.60;;
76113;SDS011;64845;53.086;5.834;2023-03-01T15:38:49;14.02;;;8.75;;
76113;SDS011;64845;53.086;5.834;2023-03-01T15:41:23;9.75;;;7.32;;
76113;SDS011;64845;53.086;5.834;2023-03-01T15:43:56;12.40;;;8.13;;
76113;SDS011;64845;53.086;5.834;2023-03-01T15:48:57;10.35;;;7.60;;
76113;SDS011;64845;53.086;5.834;2023-03-01T15:51:30;10.60;;;8.13;;
76113;SDS011;64845;53.086;5.834;2023-03-01T15:54:01;11.38;;;7.88;;
76113;SDS011;64845;53.086;5.834;2023-03-01T15:56:34;10.05;;;8.02;;
76113;SDS011;64845;53.086;5.834;2023-03-01T15:59:00;12.23;;;8.13;;
76113;SDS011;64845;53.086;5.834;2023-03-01T16:01:27;11.23;;;8.07;;
76113;SDS011;64845;53.086;5.834;2023-03-01T16:03:53;10.07;;;7.68;;
76113;SDS011;64845;53.086;5.834;2023-03-01T16:06:19;11.65;;;8.27;;
76113;SDS011;64845;53.086;5.834;2023-03-01T16:08:44;11.15;;;8.57;;
76113;SDS011;64845;53.086;5.834;2023-03-01T16:11:14;15.63;;;9.52;;
76113;SDS011;64845;53.086;5.834;2023-03-01T16:13:42;20.23;;;9.32;;
76113;SDS011;64845;53.086;5.834;2023-03-01T16:16:09;16.15;;;9.02;;
76113;SDS011;64845;53.086;5.834;2023-03-01T16:18:37;13.60;;;9.20;;
76113;SDS011;64845;53.086;5.834;2023-03-01T16:21:03;13.13;;;9.35;;
76113;SDS011;64845;53.086;5.834;2023-03-01T16:23:29;14.35;;;8.95;;
76113;SDS011;64845;53.086;5.834;2023-03-01T16:25:58;14.48;;;8.93;;
76113;SDS011;64845;53.086;5.834;2023-03-01T16:28:24;13.90;;;8.90;;
76113;SDS011;64845;53.086;5.834;2023-03-01T16:30:49;14.40;;;9.20;;
76113;SDS011;64845;53.086;5.834;2023-03-01T16:33:16;16.17;;;9.32;;
76113;SDS011;64845;53.086;5.834;2023-03-01T16:35:42;11.48;;;8.45;;
76113;SDS011;64845;53.086;5.834;2023-03-01T16:38:09;16.58;;;9.52;;
76113;SDS011;64845;53.086;5.834;2023-03-01T16:40:34;14.15;;;9.10;;